sensor_id;sensor_type;location;lat;lon;timestamp;P1;durP1;ratioP1;P2;durP2;ratioP2
67585;SDS011;55785;47.946;20.540;2023-07-28T00:02:12;1.60;;;1.20;;
67585;SDS011;55785;47.946;20.540;2023-07-28T00:04:37;3.55;;;1.35;;
67585;SDS011;55785;47.946;20.540;2023-07-28T00:07:03;2.55;;;1.08;;
67585;SDS011;55785;47.946;20.540;2023-07-28T00:09:29;1.80;;;1.10;;
67585;SDS011;55785;47.946;20.540;2023-07-28T00:11:56;1.63;;;1.20;;
67585;SDS011;55785;47.946;20.540;2023-07-28T00:14:22;1.73;;;1.00;;
67585;SDS011;55785;47.946;20.540;2023-07-28T00:16:47;4.00;;;1.02;;
67585;SDS011;55785;47.946;20.540;2023-07-28T00:19:12;3.58;;;1.00;;
67585;SDS011;55785;47.946;20.540;2023-07-28T00:21:38;1.50;;;1.05;;
67585;SDS011;55785;47.946;20.540;2023-07-28T00:24:03;1.52;;;1.20;;
67585;SDS011;55785;47.946;20.540;2023-07-28T00:26:29;2.38;;;1.23;;
67585;SDS011;55785;47.946;20.540;2023-07-28T00:28:54;1.10;;;0.90;;
67585;SDS011;55785;47.946;20.540;2023-07-28T00:31:19;2.10;;;1.25;;
67585;SDS011;55785;47.946;20.540;2023-07-28T00:33:45;1.40;;;1.20;;
67585;SDS011;55785;47.946;20.540;2023-07-28T00:36:10;3.17;;;1.20;;
67585;SDS011;55785;47.946;20.540;2023-07-28T00:38:35;3.65;;;1.10;;
67585;SDS011;55785;47.946;20.540;2023-07-28T00:41:01;3.33;;;1.15;;
67585;SDS011;55785;47.946;20.540;2023-07-28T00:43:26;4.13;;;1.13;;
67585;SDS011;55785;47.946;20.540;2023-07-28T00:45:51;2.33;;;1.00;;
67585;SDS011;55785;47.946;20.540;2023-07-28T00:48:18;1.83;;;1.00;;
67585;SDS011;55785;47.946;20.540;2023-07-28T00:50:47;1.48;;;1.20;;
67585;SDS011;55785;47.946;20.540;2023-07-28T00:53:13;1.83;;;1.10;;
67585;SDS011;55785;47.946;20.540;2023-07-28T00:55:39;1.60;;;1.20;;
67585;SDS011;55785;47.946;20.540;2023-07-28T00:58:05;1.30;;;0.93;;
67585;SDS011;55785;47.946;20.540;2023-07-28T01:00:31;1.80;;;1.10;;
67585;SDS011;55785;47.946;20.540;2023-07-28T01:02:56;2.28;;;1.10;;
67585;SDS011;55785;47.946;20.540;2023-07-28T01:05:22;2.65;;;1.00;;
67585;SDS011;55785;47.946;20.540;2023-07-28T01:07:54;2.78;;;1.20;;
67585;SDS011;55785;47.946;20.540;2023-07-28T01:10:24;2.55;;;1.20;;
67585;SDS011;55785;47.946;20.540;2023-07-28T01:12:53;1.10;;;1.00;;
67585;SDS011;55785;47.946;20.540;2023-07-28T01:15:18;2.55;;;1.13;;
67585;SDS011;55785;47.946;20.540;2023-07-28T01:17:44;1.83;;;1.17;;
67585;SDS011;55785;47.946;20.540;2023-07-28T01:20:10;3.90;;;1.00;;
67585;SDS011;55785;47.946;20.540;2023-07-28T01:25:14;2.40;;;1.02;;
67585;SDS011;55785;47.946;20.540;2023-07-28T01:27:46;2.22;;;1.10;;
67585;SDS011;55785;47.946;20.540;2023-07-28T01:30:13;2.17;;;1.10;;
67585;SDS011;55785;47.946;20.540;2023-07-28T01:32:39;1.65;;;1.30;;
67585;SDS011;55785;47.946;20.540;2023-07-28T01:35:04;1.23;;;1.00;;
67585;SDS011;55785;47.946;20.540;2023-07-28T01:37:30;1.33;;;1.10;;
67585;SDS011;55785;47.946;20.540;2023-07-28T01:39:55;2.63;;;1.20;;
67585;SDS011;55785;47.946;20.540;2023-07-28T01:42:21;1.38;;;1.10;;
67585;SDS011;55785;47.946;20.540;2023-07-28T01:44:46;2.35;;;1.00;;
67585;SDS011;55785;47.946;20.540;2023-07-28T01:47:12;2.75;;;1.17;;
67585;SDS011;55785;47.946;20.540;2023-07-28T01:49:37;4.13;;;1.10;;
67585;SDS011;55785;47.946;20.540;2023-07-28T01:52:02;1.33;;;1.10;;
67585;SDS011;55785;47.946;20.540;2023-07-28T01:54:28;1.38;;;0.93;;
67585;SDS011;55785;47.946;20.540;2023-07-28T01:56:53;1.92;;;1.20;;
67585;SDS011;55785;47.946;20.540;2023-07-28T01:59:19;1.65;;;1.20;;
67585;SDS011;55785;47.946;20.540;2023-07-28T02:01:44;1.40;;;1.17;;
67585;SDS011;55785;47.946;20.540;2023-07-28T02:04:09;1.45;;;1.10;;
67585;SDS011;55785;47.946;20.540;2023-07-28T02:06:35;2.10;;;1.17;;
67585;SDS011;55785;47.946;20.540;2023-07-28T02:09:00;1.70;;;1.10;;
67585;SDS011;55785;47.946;20.540;2023-07-28T02:11:25;1.77;;;1.00;;
67585;SDS011;55785;47.946;20.540;2023-07-28T02:13:51;1.85;;;1.20;;
67585;SDS011;55785;47.946;20.540;2023-07-28T02:16:16;1.75;;;1.10;;
67585;SDS011;55785;47.946;20.540;2023-07-28T02:18:41;1.92;;;1.50;;
67585;SDS011;55785;47.946;20.540;2023-07-28T02:21:10;2.03;;;1.10;;
67585;SDS011;55785;47.946;20.540;2023-07-28T02:23:35;1.67;;;1.20;;
67585;SDS011;55785;47.946;20.540;2023-07-28T02:26:07;4.13;;;1.25;;
67585;SDS011;55785;47.946;20.540;2023-07-28T02:28:33;1.73;;;1.15;;
67585;SDS011;55785;47.946;20.540;2023-07-28T02:30:58;2.20;;;0.90;;
67585;SDS011;55785;47.946;20.540;2023-07-28T02:33:23;4.07;;;1.30;;
67585;SDS011;55785;47.946;20.540;2023-07-28T02:35:49;1.35;;;1.10;;
67585;SDS011;55785;47.946;20.540;2023-07-28T02:38:14;1.80;;;1.20;;
67585;SDS011;55785;47.946;20.540;2023-07-28T02:40:39;1.80;;;1.00;;
67585;SDS011;55785;47.946;20.540;2023-07-28T02:43:05;2.30;;;1.10;;
67585;SDS011;55785;47.946;20.540;2023-07-28T02:45:30;3.88;;;1.23;;
67585;SDS011;55785;47.946;20.540;2023-07-28T02:47:55;1.83;;;1.02;;
67585;SDS011;55785;47.946;20.540;2023-07-28T02:50:21;1.73;;;1.20;;
67585;SDS011;55785;47.946;20.540;2023-07-28T02:52:46;1.65;;;1.05;;
67585;SDS011;55785;47.946;20.540;2023-07-28T02:55:11;2.15;;;1.20;;
67585;SDS011;55785;47.946;20.540;2023-07-28T02:57:37;1.30;;;1.02;;
67585;SDS011;55785;47.946;20.540;2023-07-28T03:00:02;1.73;;;1.20;;
67585;SDS011;55785;47.946;20.540;2023-07-28T03:02:28;1.60;;;1.02;;
67585;SDS011;55785;47.946;20.540;2023-07-28T03:04:53;1.35;;;0.98;;
67585;SDS011;55785;47.946;20.540;2023-07-28T03:07:18;1.20;;;1.00;;
67585;SDS011;55785;47.946;20.540;2023-07-28T03:09:44;2.95;;;1.23;;
67585;SDS011;55785;47.946;20.540;2023-07-28T03:12:09;1.95;;;1.23;;
67585;SDS011;55785;47.946;20.540;2023-07-28T03:14:35;1.67;;;1.20;;
67585;SDS011;55785;47.946;20.540;2023-07-28T03:17:01;1.20;;;0.98;;
67585;SDS011;55785;47.946;20.540;2023-07-28T03:19:27;1.73;;;1.20;;
67585;SDS011;55785;47.946;20.540;2023-07-28T03:21:52;1.73;;;1.23;;
67585;SDS011;55785;47.946;20.540;2023-07-28T03:24:17;2.20;;;1.08;;
67585;SDS011;55785;47.946;20.540;2023-07-28T03:26:43;1.33;;;1.13;;
67585;SDS011;55785;47.946;20.540;2023-07-28T03:29:08;1.63;;;1.10;;
67585;SDS011;55785;47.946;20.540;2023-07-28T03:31:34;1.90;;;1.38;;
67585;SDS011;55785;47.946;20.540;2023-07-28T03:33:59;2.30;;;1.20;;
67585;SDS011;55785;47.946;20.540;2023-07-28T03:36:24;3.33;;;1.20;;
67585;SDS011;55785;47.946;20.540;2023-07-28T03:38:50;2.47;;;1.20;;
67585;SDS011;55785;47.946;20.540;2023-07-28T03:41:15;2.95;;;1.20;;
67585;SDS011;55785;47.946;20.540;2023-07-28T03:43:41;2.10;;;1.30;;
67585;SDS011;55785;47.946;20.540;2023-07-28T03:46:06;2.05;;;1.48;;
67585;SDS011;55785;47.946;20.540;2023-07-28T03:48:31;1.92;;;1.17;;
67585;SDS011;55785;47.946;20.540;2023-07-28T03:50:57;3.03;;;1.35;;
67585;SDS011;55785;47.946;20.540;2023-07-28T03:53:22;1.63;;;1.20;;
67585;SDS011;55785;47.946;20.540;2023-07-28T03:55:47;5.22;;;1.10;;
67585;SDS011;55785;47.946;20.540;2023-07-28T03:58:13;1.80;;;1.30;;
67585;SDS011;55785;47.946;20.540;2023-07-28T04:00:38;2.33;;;1.02;;
67585;SDS011;55785;47.946;20.540;2023-07-28T04:03:03;3.05;;;1.17;;
67585;SDS011;55785;47.946;20.540;2023-07-28T04:05:29;5.13;;;1.30;;
67585;SDS011;55785;47.946;20.540;2023-07-28T04:07:54;3.45;;;1.27;;
67585;SDS011;55785;47.946;20.540;2023-07-28T04:10:19;2.95;;;1.27;;
67585;SDS011;55785;47.946;20.540;2023-07-28T04:12:45;1.60;;;1.10;;
67585;SDS011;55785;47.946;20.540;2023-07-28T04:15:10;3.13;;;1.20;;
67585;SDS011;55785;47.946;20.540;2023-07-28T04:17:36;4.43;;;1.20;;
67585;SDS011;55785;47.946;20.540;2023-07-28T04:20:01;3.20;;;1.25;;
67585;SDS011;55785;47.946;20.540;2023-07-28T04:22:27;3.53;;;1.52;;
67585;SDS011;55785;47.946;20.540;2023-07-28T04:24:52;4.68;;;1.50;;
67585;SDS011;55785;47.946;20.540;2023-07-28T04:27:18;2.90;;;1.23;;
67585;SDS011;55785;47.946;20.540;2023-07-28T04:29:43;1.38;;;1.00;;
67585;SDS011;55785;47.946;20.540;2023-07-28T04:32:08;3.13;;;1.30;;
67585;SDS011;55785;47.946;20.540;2023-07-28T04:34:34;1.92;;;1.20;;
67585;SDS011;55785;47.946;20.540;2023-07-28T04:36:59;2.25;;;1.30;;
67585;SDS011;55785;47.946;20.540;2023-07-28T04:39:24;2.13;;;1.17;;
67585;SDS011;55785;47.946;20.540;2023-07-28T04:41:50;2.85;;;1.40;;
67585;SDS011;55785;47.946;20.540;2023-07-28T04:44:15;3.33;;;1.17;;
67585;SDS011;55785;47.946;20.540;2023-07-28T04:46:42;3.17;;;1.55;;
67585;SDS011;55785;47.946;20.540;2023-07-28T04:49:07;1.92;;;1.27;;
67585;SDS011;55785;47.946;20.540;2023-07-28T04:51:33;4.68;;;1.50;;
67585;SDS011;55785;47.946;20.540;2023-07-28T04:53:58;3.03;;;1.25;;
67585;SDS011;55785;47.946;20.540;2023-07-28T04:56:23;1.58;;;1.13;;
67585;SDS011;55785;47.946;20.540;2023-07-28T04:58:49;1.27;;;1.05;;
67585;SDS011;55785;47.946;20.540;2023-07-28T05:01:14;1.85;;;1.15;;
67585;SDS011;55785;47.946;20.540;2023-07-28T05:03:39;2.13;;;1.10;;
67585;SDS011;55785;47.946;20.540;2023-07-28T05:06:05;3.22;;;1.40;;
67585;SDS011;55785;47.946;20.540;2023-07-28T05:08:30;3.70;;;1.35;;
67585;SDS011;55785;47.946;20.540;2023-07-28T05:10:56;2.63;;;1.35;;
67585;SDS011;55785;47.946;20.540;2023-07-28T05:13:21;1.52;;;1.15;;
67585;SDS011;55785;47.946;20.540;2023-07-28T05:15:47;2.50;;;1.27;;
67585;SDS011;55785;47.946;20.540;2023-07-28T05:18:12;1.73;;;1.20;;
67585;SDS011;55785;47.946;20.540;2023-07-28T05:20:37;2.72;;;1.20;;
67585;SDS011;55785;47.946;20.540;2023-07-28T05:23:03;2.55;;;1.20;;
67585;SDS011;55785;47.946;20.540;2023-07-28T05:25:28;3.25;;;1.20;;
67585;SDS011;55785;47.946;20.540;2023-07-28T05:27:53;1.98;;;1.20;;
67585;SDS011;55785;47.946;20.540;2023-07-28T05:30:19;1.60;;;1.35;;
67585;SDS011;55785;47.946;20.540;2023-07-28T05:49:01;3.40;;;1.50;;
67585;SDS011;55785;47.946;20.540;2023-07-28T05:51:26;2.85;;;1.70;;
67585;SDS011;55785;47.946;20.540;2023-07-28T05:53:52;3.13;;;1.67;;
67585;SDS011;55785;47.946;20.540;2023-07-28T05:56:17;5.35;;;1.60;;
67585;SDS011;55785;47.946;20.540;2023-07-28T05:58:42;2.53;;;1.50;;
67585;SDS011;55785;47.946;20.540;2023-07-28T06:01:09;2.58;;;1.67;;
67585;SDS011;55785;47.946;20.540;2023-07-28T06:03:34;2.75;;;1.60;;
67585;SDS011;55785;47.946;20.540;2023-07-28T06:06:00;4.22;;;1.50;;
67585;SDS011;55785;47.946;20.540;2023-07-28T06:08:25;4.10;;;1.60;;
67585;SDS011;55785;47.946;20.540;2023-07-28T06:10:50;2.40;;;1.52;;
67585;SDS011;55785;47.946;20.540;2023-07-28T06:13:16;2.17;;;1.40;;
67585;SDS011;55785;47.946;20.540;2023-07-28T06:15:41;2.90;;;1.80;;
67585;SDS011;55785;47.946;20.540;2023-07-28T06:18:07;2.65;;;1.70;;
67585;SDS011;55785;47.946;20.540;2023-07-28T06:20:32;3.03;;;1.80;;
67585;SDS011;55785;47.946;20.540;2023-07-28T06:22:58;2.20;;;1.48;;
67585;SDS011;55785;47.946;20.540;2023-07-28T06:25:24;3.60;;;1.70;;
67585;SDS011;55785;47.946;20.540;2023-07-28T06:27:49;2.92;;;1.58;;
67585;SDS011;55785;47.946;20.540;2023-07-28T06:30:14;2.97;;;1.73;;
67585;SDS011;55785;47.946;20.540;2023-07-28T06:32:40;3.92;;;1.70;;
67585;SDS011;55785;47.946;20.540;2023-07-28T06:35:05;3.28;;;1.90;;
67585;SDS011;55785;47.946;20.540;2023-07-28T06:37:31;4.35;;;1.38;;
67585;SDS011;55785;47.946;20.540;2023-07-28T06:39:56;3.25;;;1.55;;
67585;SDS011;55785;47.946;20.540;2023-07-28T06:42:21;3.05;;;1.52;;
67585;SDS011;55785;47.946;20.540;2023-07-28T06:44:47;2.67;;;1.45;;
67585;SDS011;55785;47.946;20.540;2023-07-28T06:47:12;5.10;;;1.55;;
67585;SDS011;55785;47.946;20.540;2023-07-28T06:49:37;3.28;;;2.03;;
67585;SDS011;55785;47.946;20.540;2023-07-28T06:52:03;3.58;;;1.40;;
67585;SDS011;55785;47.946;20.540;2023-07-28T06:54:28;2.47;;;1.60;;
67585;SDS011;55785;47.946;20.540;2023-07-28T06:56:54;2.20;;;1.40;;
67585;SDS011;55785;47.946;20.540;2023-07-28T06:59:19;2.53;;;1.65;;
67585;SDS011;55785;47.946;20.540;2023-07-28T07:01:44;4.22;;;1.42;;
67585;SDS011;55785;47.946;20.540;2023-07-28T07:04:10;2.67;;;1.40;;
67585;SDS011;55785;47.946;20.540;2023-07-28T07:06:35;2.15;;;1.52;;
67585;SDS011;55785;47.946;20.540;2023-07-28T07:09:00;2.30;;;1.50;;
67585;SDS011;55785;47.946;20.540;2023-07-28T07:11:26;3.92;;;1.63;;
67585;SDS011;55785;47.946;20.540;2023-07-28T07:13:51;4.32;;;1.58;;
67585;SDS011;55785;47.946;20.540;2023-07-28T07:16:16;2.08;;;1.30;;
67585;SDS011;55785;47.946;20.540;2023-07-28T07:18:42;3.10;;;1.42;;
67585;SDS011;55785;47.946;20.540;2023-07-28T07:21:08;4.25;;;1.60;;
67585;SDS011;55785;47.946;20.540;2023-07-28T07:23:34;3.00;;;1.70;;
67585;SDS011;55785;47.946;20.540;2023-07-28T07:25:59;3.38;;;1.55;;
67585;SDS011;55785;47.946;20.540;2023-07-28T07:28:25;3.33;;;1.50;;
67585;SDS011;55785;47.946;20.540;2023-07-28T07:30:50;2.17;;;1.45;;
67585;SDS011;55785;47.946;20.540;2023-07-28T07:33:15;2.30;;;1.60;;
67585;SDS011;55785;47.946;20.540;2023-07-28T07:35:41;4.00;;;1.60;;
67585;SDS011;55785;47.946;20.540;2023-07-28T07:38:06;2.70;;;1.38;;
67585;SDS011;55785;47.946;20.540;2023-07-28T07:40:32;2.90;;;1.60;;
67585;SDS011;55785;47.946;20.540;2023-07-28T07:42:57;2.05;;;1.38;;
67585;SDS011;55785;47.946;20.540;2023-07-28T07:45:22;5.60;;;1.63;;
67585;SDS011;55785;47.946;20.540;2023-07-28T07:47:48;3.38;;;1.30;;
67585;SDS011;55785;47.946;20.540;2023-07-28T07:50:13;3.75;;;1.40;;
67585;SDS011;55785;47.946;20.540;2023-07-28T07:52:38;4.40;;;1.40;;
67585;SDS011;55785;47.946;20.540;2023-07-28T07:55:04;4.38;;;1.50;;
67585;SDS011;55785;47.946;20.540;2023-07-28T07:57:30;4.50;;;1.48;;
67585;SDS011;55785;47.946;20.540;2023-07-28T07:59:57;2.47;;;1.50;;
67585;SDS011;55785;47.946;20.540;2023-07-28T08:02:23;2.25;;;1.45;;
67585;SDS011;55785;47.946;20.540;2023-07-28T08:04:48;2.75;;;1.20;;
67585;SDS011;55785;47.946;20.540;2023-07-28T08:07:13;1.65;;;1.30;;
67585;SDS011;55785;47.946;20.540;2023-07-28T08:09:39;2.55;;;1.45;;
67585;SDS011;55785;47.946;20.540;2023-07-28T08:12:04;3.17;;;1.50;;
67585;SDS011;55785;47.946;20.540;2023-07-28T08:14:30;3.13;;;1.40;;
67585;SDS011;55785;47.946;20.540;2023-07-28T08:16:55;2.78;;;1.42;;
67585;SDS011;55785;47.946;20.540;2023-07-28T08:19:20;1.70;;;1.20;;
67585;SDS011;55785;47.946;20.540;2023-07-28T08:21:46;2.72;;;1.50;;
67585;SDS011;55785;47.946;20.540;2023-07-28T08:24:11;1.60;;;1.20;;
67585;SDS011;55785;47.946;20.540;2023-07-28T08:26:36;1.83;;;1.15;;
67585;SDS011;55785;47.946;20.540;2023-07-28T08:29:02;1.63;;;1.25;;
67585;SDS011;55785;47.946;20.540;2023-07-28T08:31:27;4.07;;;1.20;;
67585;SDS011;55785;47.946;20.540;2023-07-28T08:33:52;1.85;;;1.45;;
67585;SDS011;55785;47.946;20.540;2023-07-28T08:36:18;1.73;;;1.20;;
67585;SDS011;55785;47.946;20.540;2023-07-28T08:38:43;2.13;;;1.30;;
67585;SDS011;55785;47.946;20.540;2023-07-28T08:41:08;3.13;;;1.13;;
67585;SDS011;55785;47.946;20.540;2023-07-28T08:43:34;1.30;;;1.10;;
67585;SDS011;55785;47.946;20.540;2023-07-28T08:46:00;2.83;;;1.30;;
67585;SDS011;55785;47.946;20.540;2023-07-28T08:48:25;1.60;;;1.20;;
67585;SDS011;55785;47.946;20.540;2023-07-28T08:50:50;2.13;;;1.20;;
67585;SDS011;55785;47.946;20.540;2023-07-28T08:53:16;5.10;;;1.58;;
67585;SDS011;55785;47.946;20.540;2023-07-28T08:55:42;3.15;;;1.10;;
67585;SDS011;55785;47.946;20.540;2023-07-28T08:58:14;1.67;;;1.13;;
67585;SDS011;55785;47.946;20.540;2023-07-28T09:00:40;4.82;;;1.20;;
67585;SDS011;55785;47.946;20.540;2023-07-28T09:03:08;2.72;;;1.23;;
67585;SDS011;55785;47.946;20.540;2023-07-28T09:05:33;1.65;;;1.10;;
67585;SDS011;55785;47.946;20.540;2023-07-28T09:07:59;1.48;;;0.90;;
67585;SDS011;55785;47.946;20.540;2023-07-28T09:10:24;1.50;;;0.93;;
67585;SDS011;55785;47.946;20.540;2023-07-28T09:12:50;2.38;;;1.38;;
67585;SDS011;55785;47.946;20.540;2023-07-28T09:15:15;1.75;;;1.10;;
67585;SDS011;55785;47.946;20.540;2023-07-28T09:17:44;1.35;;;1.02;;
67585;SDS011;55785;47.946;20.540;2023-07-28T09:20:19;1.58;;;1.00;;
67585;SDS011;55785;47.946;20.540;2023-07-28T09:22:44;1.05;;;0.90;;
67585;SDS011;55785;47.946;20.540;2023-07-28T09:25:14;1.27;;;0.90;;
67585;SDS011;55785;47.946;20.540;2023-07-28T09:27:41;2.30;;;1.00;;
67585;SDS011;55785;47.946;20.540;2023-07-28T09:30:13;3.50;;;1.00;;
67585;SDS011;55785;47.946;20.540;2023-07-28T09:32:39;1.63;;;1.00;;
67585;SDS011;55785;47.946;20.540;2023-07-28T09:35:13;1.95;;;1.20;;
67585;SDS011;55785;47.946;20.540;2023-07-28T09:37:39;1.35;;;1.00;;
67585;SDS011;55785;47.946;20.540;2023-07-28T09:40:12;1.20;;;1.00;;
67585;SDS011;55785;47.946;20.540;2023-07-28T09:42:42;1.73;;;1.00;;
67585;SDS011;55785;47.946;20.540;2023-07-28T09:45:08;1.95;;;1.00;;
67585;SDS011;55785;47.946;20.540;2023-07-28T09:47:34;4.07;;;1.00;;
67585;SDS011;55785;47.946;20.540;2023-07-28T09:50:04;2.72;;;0.98;;
67585;SDS011;55785;47.946;20.540;2023-07-28T09:52:34;1.45;;;1.00;;
67585;SDS011;55785;47.946;20.540;2023-07-28T09:55:06;1.50;;;0.90;;
67585;SDS011;55785;47.946;20.540;2023-07-28T09:57:36;2.28;;;1.00;;
67585;SDS011;55785;47.946;20.540;2023-07-28T10:00:04;1.15;;;0.90;;
67585;SDS011;55785;47.946;20.540;2023-07-28T10:02:30;1.30;;;0.90;;
67585;SDS011;55785;47.946;20.540;2023-07-28T10:04:56;1.58;;;1.10;;
67585;SDS011;55785;47.946;20.540;2023-07-28T10:07:23;1.77;;;1.08;;
67585;SDS011;55785;47.946;20.540;2023-07-28T10:09:49;1.13;;;0.93;;
67585;SDS011;55785;47.946;20.540;2023-07-28T10:12:18;1.65;;;1.08;;
67585;SDS011;55785;47.946;20.540;2023-07-28T10:14:48;1.55;;;0.93;;
67585;SDS011;55785;47.946;20.540;2023-07-28T10:17:30;2.92;;;1.00;;
67585;SDS011;55785;47.946;20.540;2023-07-28T10:20:00;1.10;;;0.90;;
67585;SDS011;55785;47.946;20.540;2023-07-28T10:22:27;1.17;;;1.00;;
67585;SDS011;55785;47.946;20.540;2023-07-28T10:24:54;1.35;;;1.00;;
67585;SDS011;55785;47.946;20.540;2023-07-28T10:27:29;3.20;;;0.93;;
67585;SDS011;55785;47.946;20.540;2023-07-28T10:30:03;2.78;;;1.20;;
67585;SDS011;55785;47.946;20.540;2023-07-28T10:32:40;1.50;;;1.05;;
67585;SDS011;55785;47.946;20.540;2023-07-28T10:37:34;1.90;;;1.05;;
67585;SDS011;55785;47.946;20.540;2023-07-28T10:40:42;2.70;;;1.08;;
67585;SDS011;55785;47.946;20.540;2023-07-28T10:42:53;5.10;;;1.10;;
67585;SDS011;55785;47.946;20.540;2023-07-28T10:45:20;2.38;;;1.10;;
67585;SDS011;55785;47.946;20.540;2023-07-28T10:47:47;1.33;;;1.02;;
67585;SDS011;55785;47.946;20.540;2023-07-28T10:50:13;1.60;;;0.90;;
67585;SDS011;55785;47.946;20.540;2023-07-28T10:52:39;1.00;;;0.80;;
67585;SDS011;55785;47.946;20.540;2023-07-28T10:55:05;1.10;;;0.90;;
67585;SDS011;55785;47.946;20.540;2023-07-28T10:57:36;1.73;;;0.90;;
67585;SDS011;55785;47.946;20.540;2023-07-28T11:00:01;2.67;;;1.00;;
67585;SDS011;55785;47.946;20.540;2023-07-28T11:02:27;1.50;;;1.10;;
67585;SDS011;55785;47.946;20.540;2023-07-28T11:04:52;2.25;;;1.00;;
67585;SDS011;55785;47.946;20.540;2023-07-28T11:07:17;2.20;;;1.20;;
67585;SDS011;55785;47.946;20.540;2023-07-28T11:09:43;1.40;;;1.00;;
67585;SDS011;55785;47.946;20.540;2023-07-28T11:12:08;1.58;;;1.00;;
67585;SDS011;55785;47.946;20.540;2023-07-28T11:14:34;1.20;;;1.02;;
67585;SDS011;55785;47.946;20.540;2023-07-28T11:16:59;1.45;;;1.00;;
67585;SDS011;55785;47.946;20.540;2023-07-28T11:19:26;2.28;;;1.33;;
67585;SDS011;55785;47.946;20.540;2023-07-28T11:21:51;3.65;;;1.10;;
67585;SDS011;55785;47.946;20.540;2023-07-28T11:24:20;2.42;;;0.95;;
67585;SDS011;55785;47.946;20.540;2023-07-28T11:26:46;1.58;;;0.98;;
67585;SDS011;55785;47.946;20.540;2023-07-28T11:29:12;0.98;;;0.88;;
67585;SDS011;55785;47.946;20.540;2023-07-28T11:31:37;3.20;;;0.98;;
67585;SDS011;55785;47.946;20.540;2023-07-28T11:34:02;2.03;;;1.13;;
67585;SDS011;55785;47.946;20.540;2023-07-28T11:36:28;2.05;;;0.90;;
67585;SDS011;55785;47.946;20.540;2023-07-28T11:38:56;2.53;;;0.98;;
67585;SDS011;55785;47.946;20.540;2023-07-28T11:41:23;1.90;;;1.00;;
67585;SDS011;55785;47.946;20.540;2023-07-28T11:43:50;1.63;;;1.00;;
67585;SDS011;55785;47.946;20.540;2023-07-28T11:49:17;1.30;;;1.02;;
67585;SDS011;55785;47.946;20.540;2023-07-28T11:51:43;1.27;;;1.00;;
67585;SDS011;55785;47.946;20.540;2023-07-28T11:54:10;1.63;;;0.90;;
67585;SDS011;55785;47.946;20.540;2023-07-28T11:56:36;2.28;;;1.15;;
67585;SDS011;55785;47.946;20.540;2023-07-28T11:59:02;1.83;;;1.00;;
67585;SDS011;55785;47.946;20.540;2023-07-28T12:01:27;2.15;;;1.17;;
67585;SDS011;55785;47.946;20.540;2023-07-28T12:03:52;1.55;;;1.10;;
67585;SDS011;55785;47.946;20.540;2023-07-28T12:06:18;1.88;;;1.20;;
67585;SDS011;55785;47.946;20.540;2023-07-28T12:08:43;2.45;;;1.13;;
67585;SDS011;55785;47.946;20.540;2023-07-28T12:11:15;6.22;;;1.13;;
67585;SDS011;55785;47.946;20.540;2023-07-28T12:13:47;4.22;;;1.00;;
67585;SDS011;55785;47.946;20.540;2023-07-28T12:19:12;2.83;;;1.13;;
67585;SDS011;55785;47.946;20.540;2023-07-28T12:21:37;3.70;;;1.00;;
67585;SDS011;55785;47.946;20.540;2023-07-28T12:24:03;1.80;;;1.10;;
67585;SDS011;55785;47.946;20.540;2023-07-28T12:26:28;1.60;;;1.00;;
67585;SDS011;55785;47.946;20.540;2023-07-28T12:28:53;4.88;;;1.30;;
67585;SDS011;55785;47.946;20.540;2023-07-28T12:31:19;1.60;;;0.90;;
67585;SDS011;55785;47.946;20.540;2023-07-28T12:33:44;1.42;;;1.13;;
67585;SDS011;55785;47.946;20.540;2023-07-28T12:36:09;1.55;;;0.90;;
67585;SDS011;55785;47.946;20.540;2023-07-28T12:38:35;4.10;;;1.02;;
67585;SDS011;55785;47.946;20.540;2023-07-28T12:41:00;1.88;;;1.10;;
67585;SDS011;55785;47.946;20.540;2023-07-28T12:43:26;3.13;;;1.10;;
67585;SDS011;55785;47.946;20.540;2023-07-28T12:45:51;1.40;;;1.00;;
67585;SDS011;55785;47.946;20.540;2023-07-28T12:48:17;1.95;;;1.20;;
67585;SDS011;55785;47.946;20.540;2023-07-28T12:50:42;2.17;;;1.15;;
67585;SDS011;55785;47.946;20.540;2023-07-28T12:53:08;2.78;;;1.20;;
67585;SDS011;55785;47.946;20.540;2023-07-28T12:55:33;1.83;;;1.00;;
67585;SDS011;55785;47.946;20.540;2023-07-28T12:57:58;3.00;;;1.10;;
67585;SDS011;55785;47.946;20.540;2023-07-28T13:00:24;1.95;;;1.00;;
67585;SDS011;55785;47.946;20.540;2023-07-28T13:02:49;1.90;;;0.98;;
67585;SDS011;55785;47.946;20.540;2023-07-28T13:05:14;2.00;;;1.30;;
67585;SDS011;55785;47.946;20.540;2023-07-28T13:07:40;1.73;;;1.00;;
67585;SDS011;55785;47.946;20.540;2023-07-28T13:10:06;1.27;;;1.00;;
67585;SDS011;55785;47.946;20.540;2023-07-28T13:12:33;1.60;;;1.10;;
67585;SDS011;55785;47.946;20.540;2023-07-28T13:14:58;3.00;;;1.20;;
67585;SDS011;55785;47.946;20.540;2023-07-28T13:17:23;1.95;;;1.00;;
67585;SDS011;55785;47.946;20.540;2023-07-28T13:19:49;1.63;;;1.10;;
67585;SDS011;55785;47.946;20.540;2023-07-28T13:22:14;3.22;;;1.00;;
67585;SDS011;55785;47.946;20.540;2023-07-28T13:24:39;2.40;;;0.90;;
67585;SDS011;55785;47.946;20.540;2023-07-28T13:27:05;1.33;;;0.98;;
67585;SDS011;55785;47.946;20.540;2023-07-28T13:29:30;4.53;;;1.17;;
67585;SDS011;55785;47.946;20.540;2023-07-28T13:31:59;2.08;;;1.25;;
67585;SDS011;55785;47.946;20.540;2023-07-28T13:34:24;4.50;;;1.40;;
67585;SDS011;55785;47.946;20.540;2023-07-28T13:36:50;2.72;;;1.05;;
67585;SDS011;55785;47.946;20.540;2023-07-28T13:39:15;2.15;;;1.10;;
67585;SDS011;55785;47.946;20.540;2023-07-28T13:41:41;1.63;;;1.00;;
67585;SDS011;55785;47.946;20.540;2023-07-28T13:44:06;1.08;;;0.90;;
67585;SDS011;55785;47.946;20.540;2023-07-28T13:46:31;1.58;;;1.00;;
67585;SDS011;55785;47.946;20.540;2023-07-28T13:48:57;2.78;;;1.33;;
67585;SDS011;55785;47.946;20.540;2023-07-28T13:51:22;1.40;;;1.17;;
67585;SDS011;55785;47.946;20.540;2023-07-28T13:53:47;2.60;;;1.20;;
67585;SDS011;55785;47.946;20.540;2023-07-28T13:56:13;2.10;;;1.30;;
67585;SDS011;55785;47.946;20.540;2023-07-28T13:58:38;1.83;;;1.10;;
67585;SDS011;55785;47.946;20.540;2023-07-28T14:01:04;3.80;;;1.10;;
67585;SDS011;55785;47.946;20.540;2023-07-28T14:03:29;2.20;;;1.10;;
67585;SDS011;55785;47.946;20.540;2023-07-28T14:05:54;2.53;;;1.17;;
67585;SDS011;55785;47.946;20.540;2023-07-28T14:08:20;3.20;;;1.10;;
67585;SDS011;55785;47.946;20.540;2023-07-28T14:10:45;2.08;;;1.33;;
67585;SDS011;55785;47.946;20.540;2023-07-28T14:13:11;2.08;;;1.20;;
67585;SDS011;55785;47.946;20.540;2023-07-28T14:15:37;1.40;;;1.25;;
67585;SDS011;55785;47.946;20.540;2023-07-28T14:18:02;2.70;;;1.30;;
67585;SDS011;55785;47.946;20.540;2023-07-28T14:20:27;2.63;;;1.27;;
67585;SDS011;55785;47.946;20.540;2023-07-28T14:22:53;3.15;;;1.27;;
67585;SDS011;55785;47.946;20.540;2023-07-28T14:25:18;4.43;;;1.20;;
67585;SDS011;55785;47.946;20.540;2023-07-28T14:27:43;4.22;;;1.30;;
67585;SDS011;55785;47.946;20.540;2023-07-28T14:30:09;2.65;;;1.40;;
67585;SDS011;55785;47.946;20.540;2023-07-28T14:32:35;1.95;;;1.30;;
67585;SDS011;55785;47.946;20.540;2023-07-28T14:35:00;2.60;;;1.30;;
67585;SDS011;55785;47.946;20.540;2023-07-28T14:37:25;4.35;;;1.40;;
67585;SDS011;55785;47.946;20.540;2023-07-28T14:39:51;2.78;;;1.30;;
67585;SDS011;55785;47.946;20.540;2023-07-28T14:42:16;2.50;;;1.30;;
67585;SDS011;55785;47.946;20.540;2023-07-28T14:44:41;2.67;;;1.30;;
67585;SDS011;55785;47.946;20.540;2023-07-28T14:47:07;1.45;;;1.23;;
67585;SDS011;55785;47.946;20.540;2023-07-28T14:49:32;1.50;;;1.13;;
67585;SDS011;55785;47.946;20.540;2023-07-28T14:51:57;2.63;;;1.35;;
67585;SDS011;55785;47.946;20.540;2023-07-28T14:54:23;2.20;;;1.40;;